createdAt,value
2022-08-18T00:00:20.459Z,45222.38
2022-08-18T00:03:01.164Z,45222.38
2022-08-18T00:05:34.550Z,45232.38
2022-08-18T00:08:05.566Z,45218.38
2022-08-18T00:10:32.865Z,45226.38
2022-08-18T00:13:01.354Z,45216.38
2022-08-18T00:15:28.159Z,45222.38
2022-08-18T00:17:54.584Z,45218.38
2022-08-18T00:20:23.986Z,45226.38
2022-08-18T00:22:51.684Z,45234.38
2022-08-18T00:25:19.656Z,45234.38
2022-08-18T00:27:46.150Z,45250.34
2022-08-18T00:30:15.859Z,45234.38
2022-08-18T00:32:46.971Z,45234.38
2022-08-18T00:35:29.069Z,45246.34
2022-08-18T00:37:58.029Z,45222.38
2022-08-18T00:40:37.620Z,45238.38
2022-08-18T00:43:06.512Z,45222.38
2022-08-18T00:45:36.491Z,45246.34
2022-08-18T00:48:04.641Z,45242.34
2022-08-18T00:50:43.315Z,45230.38
2022-08-18T00:53:14.284Z,45234.38
2022-08-18T00:55:44.316Z,45220.38
2022-08-18T00:58:27.732Z,45240.34
2022-08-18T01:00:54.776Z,45234.38
2022-08-18T01:03:24.995Z,45238.38
2022-08-18T01:05:58.126Z,45230.38
2022-08-18T01:08:28.743Z,45222.38
2022-08-18T01:10:56.312Z,45244.34
2022-08-18T01:13:27.630Z,45242.34
2022-08-18T01:15:54.477Z,45230.38
2022-08-18T01:18:39.753Z,45238.38
2022-08-18T01:21:33.845Z,45218.38
2022-08-18T01:24:04.707Z,45234.38
2022-08-18T01:26:34.801Z,45236.38
2022-08-18T01:29:18.774Z,45224.38
2022-08-18T01:31:56.039Z,45228.38
2022-08-18T01:34:26.281Z,45232.38
2022-08-18T01:36:54.840Z,45222.38
2022-08-18T01:41:21.302Z,45226.38
2022-08-18T01:42:09.235Z,45226.38
2022-08-18T01:44:36.130Z,45232.38
2022-08-18T01:47:02.662Z,45226.38
2022-08-18T01:49:29.210Z,45232.38
2022-08-18T01:51:55.854Z,45230.38
2022-08-18T01:54:22.759Z,45238.38
2022-08-18T01:56:49.456Z,45218.38
2022-08-18T01:59:16.112Z,45238.38
2022-08-18T02:01:48.933Z,45230.38
2022-08-18T02:04:34.975Z,45234.38
2022-08-18T02:07:05.087Z,45228.38
2022-08-18T02:09:31.563Z,45226.38
2022-08-18T02:11:58.014Z,45226.38
2022-08-18T02:14:25.063Z,45234.38
2022-08-18T02:16:55.475Z,45238.38
2022-08-18T02:19:28.250Z,45226.38
2022-08-18T02:21:54.757Z,45228.38
2022-08-18T02:24:21.237Z,45238.38
2022-08-18T02:26:47.643Z,45242.34
2022-08-18T02:29:14.170Z,45250.34
2022-08-18T02:31:40.657Z,45234.38
2022-08-18T02:34:07.063Z,45230.38
2022-08-18T02:36:33.467Z,45240.34
2022-08-18T02:39:00.238Z,45236.38
2022-08-18T02:41:29.492Z,45242.34
2022-08-18T02:43:57.432Z,45236.38
2022-08-18T02:46:23.896Z,45222.38
2022-08-18T02:48:56.978Z,45222.38
2022-08-18T02:51:23.572Z,45246.34
2022-08-18T02:53:53.799Z,45232.38
2022-08-18T02:56:32.985Z,45218.38
2022-08-18T02:59:10.585Z,45212.38
2022-08-18T03:01:41.276Z,45238.38
2022-08-18T03:04:09.920Z,45220.38
2022-08-18T03:06:37.975Z,45238.38
2022-08-18T03:09:09.931Z,45226.38
2022-08-18T03:11:37.708Z,45230.38
2022-08-18T03:14:05.757Z,45238.38
2022-08-18T03:16:36.129Z,45234.38
2022-08-18T03:19:03.443Z,45230.38
2022-08-18T03:21:35.586Z,45228.38
2022-08-18T03:24:02.969Z,45240.34
2022-08-18T03:26:36.177Z,45228.38
2022-08-18T03:29:02.628Z,45230.38
2022-08-18T03:31:31.221Z,45236.38
2022-08-18T03:33:59.891Z,45238.38
2022-08-18T03:36:30.560Z,45226.38
2022-08-18T03:38:57.427Z,45214.38
2022-08-18T03:41:44.015Z,45232.38
2022-08-18T03:44:14.632Z,45238.38
2022-08-18T03:46:43.485Z,45240.34
2022-08-18T03:49:10.413Z,45238.38
2022-08-18T03:51:37.351Z,45230.38
2022-08-18T03:54:06.070Z,45226.38
2022-08-18T03:56:36.246Z,45244.34
2022-08-18T03:59:07.930Z,45240.34
2022-08-18T04:01:40.611Z,45238.38
2022-08-18T04:04:11.211Z,45244.34
2022-08-18T04:06:51.132Z,45226.38
2022-08-18T04:09:18.780Z,45224.38
2022-08-18T04:11:46.472Z,45246.34
2022-08-18T04:14:15.247Z,45246.34
2022-08-18T04:16:42.196Z,45250.34
2022-08-18T04:19:09.873Z,45238.38
2022-08-18T04:21:39.423Z,45238.38
2022-08-18T04:24:07.321Z,45218.38
2022-08-18T04:26:37.639Z,45238.38
2022-08-18T04:29:05.966Z,45242.34
2022-08-18T04:31:32.600Z,45242.34
2022-08-18T04:34:00.963Z,45240.34
2022-08-18T04:36:29.422Z,45254.34
2022-08-18T04:38:57.109Z,45236.38
2022-08-18T04:41:27.505Z,45242.34
2022-08-18T04:43:55.649Z,45236.38
2022-08-18T04:46:23.881Z,45236.38
2022-08-18T04:48:52.108Z,45242.34
2022-08-18T04:52:38.308Z,45226.38
2022-08-18T04:54:07.169Z,45240.34
2022-08-18T04:56:37.745Z,45242.34
2022-08-18T04:59:09.938Z,45232.38
2022-08-18T05:01:45.661Z,45246.34
2022-08-18T05:04:14.167Z,45234.38
2022-08-18T05:06:43.340Z,45230.38
2022-08-18T05:09:12.653Z,45224.38
2022-08-18T05:11:47.081Z,45232.38
2022-08-18T05:14:14.410Z,45238.38
2022-08-18T05:16:42.197Z,45230.38
2022-08-18T05:19:19.722Z,45216.38
2022-08-18T05:21:50.670Z,45246.34
2022-08-18T05:24:18.877Z,45242.34
2022-08-18T05:26:45.803Z,45228.38
2022-08-18T05:29:19.036Z,45232.38
2022-08-18T05:31:46.645Z,45218.38
2022-08-18T05:34:13.095Z,45228.38
2022-08-18T05:36:48.678Z,45224.38
2022-08-18T05:39:17.902Z,45228.38
2022-08-18T05:41:49.005Z,45230.38
2022-08-18T05:44:19.875Z,45230.38
2022-08-18T05:46:52.213Z,45226.38
2022-08-18T05:49:20.537Z,45242.34
2022-08-18T05:51:50.882Z,45226.38
2022-08-18T05:54:39.807Z,45222.38
2022-08-18T05:57:17.204Z,45210.38
2022-08-18T05:59:45.405Z,45222.38
2022-08-18T06:02:20.185Z,45228.38
2022-08-18T06:04:55.942Z,45230.38
2022-08-18T06:07:34.592Z,45234.38
2022-08-18T06:10:02.365Z,45206.38
2022-08-18T06:12:37.349Z,45230.38
2022-08-18T06:15:13.205Z,45230.38
2022-08-18T06:18:17.356Z,45232.38
2022-08-18T06:21:12.832Z,45232.38
2022-08-18T06:23:46.797Z,45198.41
2022-08-18T06:26:17.669Z,45226.38
2022-08-18T06:29:08.747Z,45230.38
2022-08-18T06:31:46.533Z,45238.38
2022-08-18T06:34:31.143Z,45234.38
2022-08-18T06:37:10.464Z,45222.38
2022-08-18T06:39:57.007Z,45222.38
2022-08-18T06:42:31.339Z,45230.38
2022-08-18T06:45:06.689Z,45230.38
2022-08-18T06:47:43.136Z,45234.38
2022-08-18T06:50:26.417Z,45226.38
2022-08-18T06:52:59.002Z,45214.38
2022-08-18T06:55:40.911Z,45226.38
2022-08-18T06:58:16.894Z,45222.38
2022-08-18T07:00:55.016Z,45218.38
2022-08-18T07:03:40.422Z,45226.38
2022-08-18T07:06:24.405Z,45230.38
2022-08-18T07:08:56.130Z,45230.38
2022-08-18T07:11:31.586Z,45210.38
2022-08-18T07:14:16.459Z,45214.38
2022-08-18T07:17:00.033Z,45212.38
2022-08-18T07:19:31.870Z,45222.38
2022-08-18T07:22:11.759Z,45212.38
2022-08-18T07:24:40.816Z,45210.38
2022-08-18T07:27:19.936Z,45230.38
2022-08-18T07:30:05.715Z,45222.38
2022-08-18T07:32:40.426Z,45218.38
2022-08-18T07:35:09.508Z,45222.38
2022-08-18T07:37:48.172Z,45232.38
2022-08-18T07:40:29.206Z,45210.38
2022-08-18T07:43:02.665Z,45214.38
2022-08-18T07:45:46.929Z,45210.38
2022-08-18T07:48:38.319Z,45212.38
2022-08-18T07:51:28.486Z,45206.38
2022-08-18T07:54:45.494Z,45190.41
2022-08-18T07:57:25.036Z,45178.41
2022-08-18T08:00:23.240Z,45212.38
2022-08-18T08:03:09.941Z,45212.38
2022-08-18T08:05:48.885Z,45208.38
2022-08-18T08:08:54.846Z,45198.41
2022-08-18T08:11:56.752Z,45210.38
2022-08-18T08:14:29.358Z,45210.38
2022-08-18T08:17:25.376Z,45198.41
2022-08-18T08:20:22.221Z,45196.41
2022-08-18T08:22:58.260Z,45194.41
2022-08-18T08:25:54.165Z,45216.38
2022-08-18T08:28:42.257Z,45218.38
2022-08-18T08:31:44.928Z,45210.38
2022-08-18T08:34:25.733Z,45208.38
2022-08-18T08:37:00.918Z,45210.38
2022-08-18T08:39:45.235Z,45192.41
2022-08-18T08:42:30.716Z,45198.41
2022-08-18T08:45:23.630Z,45202.38
2022-08-18T08:48:08.904Z,45192.41
2022-08-18T08:50:43.691Z,45206.38
2022-08-18T08:53:26.182Z,45202.38
2022-08-18T08:56:02.046Z,45194.41
2022-08-18T08:58:37.447Z,45190.41
2022-08-18T09:01:05.947Z,45178.41
2022-08-18T09:03:53.341Z,45178.41
2022-08-18T09:07:08.186Z,45186.41
2022-08-18T09:09:43.948Z,45196.41
2022-08-18T09:12:22.315Z,45182.41
2022-08-18T09:14:51.868Z,45184.41
2022-08-18T09:17:53.330Z,45178.41
2022-08-18T09:20:35.303Z,45172.41
2022-08-18T09:23:11.534Z,45190.41
2022-08-18T09:25:37.893Z,45174.41
2022-08-18T09:28:16.918Z,45182.41
2022-08-18T09:31:05.525Z,45168.41
2022-08-18T09:33:38.366Z,45178.41
2022-08-18T09:36:25.689Z,45180.41
2022-08-18T09:39:38.670Z,45176.41
2022-08-18T09:42:14.250Z,45174.41
2022-08-18T09:44:48.072Z,45184.41
2022-08-18T09:47:20.796Z,45166.44
2022-08-18T09:49:53.512Z,45166.44
2022-08-18T09:52:21.108Z,45182.41
2022-08-18T09:54:59.050Z,45178.41
2022-08-18T10:00:33.468Z,45168.41
2022-08-18T10:03:01.086Z,45150.44
2022-08-18T10:05:31.184Z,45166.44
2022-08-18T10:08:06.891Z,45170.41
2022-08-18T10:11:09.085Z,45154.44
2022-08-18T10:13:49.508Z,45162.44
2022-08-18T10:17:13.241Z,45166.44
2022-08-18T10:19:44.308Z,45158.44
2022-08-18T10:22:13.173Z,45178.41
2022-08-18T10:24:56.022Z,45162.44
2022-08-18T10:27:48.967Z,45158.44
2022-08-18T10:30:57.689Z,45154.44
2022-08-18T10:34:17.114Z,45158.44
2022-08-18T10:37:00.392Z,45166.44
2022-08-18T10:39:41.305Z,45150.44
2022-08-18T10:42:30.839Z,45138.44
2022-08-18T10:45:10.321Z,45150.44
2022-08-18T10:47:37.335Z,45154.44
2022-08-18T10:50:09.215Z,45146.44
2022-08-18T10:53:17.085Z,45154.44
2022-08-18T10:55:50.533Z,45134.44
2022-08-18T10:58:48.865Z,45122.47
2022-08-18T11:01:46.293Z,45142.44
2022-08-18T11:04:33.139Z,45124.47
2022-08-18T11:07:15.714Z,45154.44
2022-08-18T11:09:57.265Z,45144.44
2022-08-18T11:13:08.903Z,45130.44
2022-08-18T11:15:58.983Z,45146.44
2022-08-18T11:18:43.437Z,45138.44
2022-08-18T11:21:41.770Z,45136.44
2022-08-18T11:24:24.160Z,45114.47
2022-08-18T11:26:57.538Z,45134.44
2022-08-18T11:29:36.494Z,45106.47
2022-08-18T11:32:21.795Z,45122.47
2022-08-18T11:34:58.474Z,45106.47
2022-08-18T11:37:51.442Z,45084.50
2022-08-18T11:46:28.201Z,45068.50
2022-08-18T11:48:59.864Z,45074.50
2022-08-18T11:51:30.291Z,45070.50
2022-08-18T11:54:04.763Z,45074.50
2022-08-18T11:56:37.669Z,45074.50
2022-08-18T11:59:06.585Z,45046.53
2022-08-18T12:01:43.238Z,45058.53
2022-08-18T12:04:34.391Z,45046.53
2022-08-18T12:07:08.094Z,45034.53
2022-08-18T12:12:33.408Z,45018.56
2022-08-18T12:15:10.493Z,45002.56
2022-08-18T12:20:39.142Z,44998.56
2022-08-18T12:23:05.676Z,44998.56
2022-08-18T12:25:32.298Z,45012.56
2022-08-18T12:27:58.719Z,45006.56
2022-08-18T12:30:25.133Z,45002.56
2022-08-18T12:35:41.800Z,44998.56
2022-08-18T12:38:12.865Z,44998.56
2022-08-18T12:40:42.107Z,45000.56
2022-08-18T12:43:09.303Z,44990.59
2022-08-18T12:48:23.013Z,44994.56
2022-08-18T12:53:57.787Z,44968.59
2022-08-18T12:56:27.166Z,44966.59
2022-08-18T12:58:54.674Z,44974.59
2022-08-18T13:01:23.195Z,44970.59
2022-08-18T13:04:12.797Z,44970.59
2022-08-18T13:06:58.806Z,44970.59
2022-08-18T13:09:34.882Z,44974.59
2022-08-18T13:12:16.390Z,44970.59
2022-08-18T13:14:44.709Z,44990.59
2022-08-18T13:17:29.490Z,44978.59
2022-08-18T13:19:58.732Z,44982.59
2022-08-18T13:22:32.763Z,44990.59
2022-08-18T13:25:01.641Z,44994.56
2022-08-18T13:27:33.685Z,44982.59
2022-08-18T13:30:29.787Z,44990.59
2022-08-18T13:33:02.419Z,45006.56
2022-08-18T13:35:37.951Z,45002.56
2022-08-18T13:38:14.280Z,45002.56
2022-08-18T13:40:45.574Z,44990.59
2022-08-18T13:43:15.857Z,44994.56
2022-08-18T13:45:46.798Z,44986.59
2022-08-18T13:48:14.580Z,44986.59
2022-08-18T13:50:41.749Z,44986.59
2022-08-18T13:53:19.338Z,44984.59
2022-08-18T13:55:46.710Z,44982.59
2022-08-18T13:58:20.330Z,44992.56
2022-08-18T14:00:52.213Z,44990.59
2022-08-18T14:03:42.748Z,45002.56
2022-08-18T14:06:13.270Z,44986.59
2022-08-18T14:08:40.552Z,44998.56
2022-08-18T14:11:08.357Z,44998.56
2022-08-18T14:13:38.358Z,44980.59
2022-08-18T14:16:11.123Z,45002.56
2022-08-18T14:19:09.814Z,44980.59
2022-08-18T14:22:01.533Z,44992.56
2022-08-18T14:24:48.707Z,44994.56
2022-08-18T14:27:16.961Z,45002.56
2022-08-18T14:29:46.903Z,44996.56
2022-08-18T14:32:21.946Z,44988.59
2022-08-18T14:35:24.466Z,44994.56
2022-08-18T14:37:47.759Z,44984.59
2022-08-18T14:40:14.855Z,44998.56
2022-08-18T14:42:54.864Z,44986.59
2022-08-18T14:45:31.428Z,45004.56
2022-08-18T14:48:02.380Z,45000.56
2022-08-18T14:50:33.380Z,44994.56
2022-08-18T14:52:59.819Z,45002.56
2022-08-18T14:55:26.796Z,45014.56
2022-08-18T14:57:53.660Z,45006.56
2022-08-18T15:00:22.698Z,45008.56
2022-08-18T15:02:49.301Z,45008.56
2022-08-18T15:05:19.779Z,45032.53
2022-08-18T15:07:50.780Z,45006.56
2022-08-18T15:10:20.020Z,45008.56
2022-08-18T15:12:50.937Z,45028.53
2022-08-18T15:15:18.506Z,45026.53
2022-08-18T15:17:52.487Z,45026.53
2022-08-18T15:20:20.674Z,45042.53
2022-08-18T15:23:13.816Z,45030.53
2022-08-18T15:25:44.549Z,45044.53
2022-08-18T15:28:23.731Z,45040.53
2022-08-18T15:31:16.556Z,45042.53
2022-08-18T15:33:38.958Z,45042.53
2022-08-18T15:36:05.623Z,45050.53
2022-08-18T15:38:36.832Z,45062.50
2022-08-18T15:41:05.993Z,45048.53
2022-08-18T15:43:45.908Z,45054.53
2022-08-18T15:46:13.997Z,45050.53
2022-08-18T15:48:43.437Z,45038.53
2022-08-18T15:51:12.124Z,45050.53
2022-08-18T15:53:40.029Z,45054.53
2022-08-18T15:56:20.972Z,45054.53
2022-08-18T15:58:48.102Z,45052.53
2022-08-18T16:01:29.908Z,45062.50
2022-08-18T16:03:59.584Z,45054.53
2022-08-18T16:06:27.851Z,45046.53
2022-08-18T16:08:59.823Z,45046.53
2022-08-18T16:11:29.409Z,45054.53
2022-08-18T16:13:58.679Z,45058.53
2022-08-18T16:16:29.319Z,45050.53
2022-08-18T16:19:04.655Z,45058.53
2022-08-18T16:21:31.092Z,45062.50
2022-08-18T16:23:58.225Z,45058.53
2022-08-18T16:26:24.673Z,45056.53
2022-08-18T16:28:52.341Z,45044.53
2022-08-18T16:31:24.902Z,45052.53
2022-08-18T16:33:53.502Z,45066.50
2022-08-18T16:36:20.663Z,45064.50
2022-08-18T16:38:47.283Z,45062.50
2022-08-18T16:41:15.965Z,45064.50
2022-08-18T16:43:45.565Z,45066.50
2022-08-18T16:46:15.383Z,45066.50
2022-08-18T16:48:45.688Z,45066.50
2022-08-18T16:51:14.233Z,45066.50
2022-08-18T16:53:40.901Z,45074.50
2022-08-18T16:56:15.152Z,45066.50
2022-08-18T16:59:00.277Z,45062.50
2022-08-18T17:01:49.147Z,45074.50
2022-08-18T17:04:21.020Z,45058.53
2022-08-18T17:06:47.750Z,45070.50
2022-08-18T17:09:15.100Z,45064.50
2022-08-18T17:11:51.603Z,45062.50
2022-08-18T17:14:23.810Z,45090.50
2022-08-18T17:16:55.357Z,45076.50
2022-08-18T17:19:27.713Z,45070.50
2022-08-18T17:21:54.261Z,45058.53
2022-08-18T17:24:31.193Z,45070.50
2022-08-18T17:27:25.770Z,45086.50
2022-08-18T17:30:11.340Z,45064.50
2022-08-18T17:35:09.221Z,45070.50
2022-08-18T17:37:37.380Z,45074.50
2022-08-18T17:40:18.510Z,45076.50
2022-08-18T17:42:44.947Z,45070.50
2022-08-18T17:45:22.051Z,45076.50
2022-08-18T17:47:58.965Z,45078.50
2022-08-18T17:51:00.121Z,45070.50
2022-08-18T17:53:27.511Z,45068.50
2022-08-18T17:56:05.297Z,45070.50
2022-08-18T17:58:44.843Z,45068.50
2022-08-18T18:01:12.708Z,45078.50
2022-08-18T18:03:40.064Z,45086.50
2022-08-18T18:06:29.585Z,45062.50
2022-08-18T18:09:06.118Z,45074.50
2022-08-18T18:11:47.032Z,45090.50
2022-08-18T18:14:38.723Z,45086.50
2022-08-18T18:17:18.169Z,45086.50
2022-08-18T18:19:47.950Z,45094.50
2022-08-18T18:22:20.328Z,45090.50
2022-08-18T18:24:54.719Z,45090.50
2022-08-18T18:27:26.510Z,45096.47
2022-08-18T18:30:27.552Z,45076.50
2022-08-18T18:33:03.052Z,45086.50
2022-08-18T18:35:31.102Z,45094.50
2022-08-18T18:38:20.957Z,45106.47
2022-08-18T18:41:01.247Z,45100.47
2022-08-18T18:43:33.555Z,45100.47
2022-08-18T18:46:25.062Z,45100.47
2022-08-18T18:49:18.779Z,45118.47
2022-08-18T18:52:10.105Z,45090.50
2022-08-18T18:54:55.414Z,45096.47
2022-08-18T18:57:43.373Z,45102.47
2022-08-18T19:00:37.489Z,45116.47
2022-08-18T19:03:43.146Z,45116.47
2022-08-18T19:06:29.065Z,45106.47
2022-08-18T19:09:24.282Z,45104.47
2022-08-18T19:11:58.359Z,45114.47
2022-08-18T19:14:30.318Z,45106.47
2022-08-18T19:17:01.572Z,45118.47
2022-08-18T19:19:37.862Z,45112.47
2022-08-18T19:22:18.609Z,45114.47
2022-08-18T19:24:56.288Z,45108.47
2022-08-18T19:27:34.163Z,45122.47
2022-08-18T19:30:06.917Z,45108.47
2022-08-18T19:32:45.324Z,45142.44
2022-08-18T19:35:19.537Z,45122.47
2022-08-18T19:38:04.510Z,45126.47
2022-08-18T19:40:52.750Z,45114.47
2022-08-18T19:43:32.870Z,45134.44
2022-08-18T19:46:10.981Z,45138.44
2022-08-18T19:48:43.087Z,45130.44
2022-08-18T19:51:28.952Z,45130.44
2022-08-18T19:54:17.162Z,45130.44
2022-08-18T19:57:17.786Z,45138.44
2022-08-18T19:59:57.189Z,45130.44
2022-08-18T20:02:46.935Z,45134.44
2022-08-18T20:05:52.862Z,45134.44
2022-08-18T20:08:51.164Z,45142.44
2022-08-18T20:11:41.800Z,45134.44
2022-08-18T20:14:20.547Z,45138.44
2022-08-18T20:17:26.849Z,45138.44
2022-08-18T20:19:57.589Z,45142.44
2022-08-18T20:22:24.487Z,45130.44
2022-08-18T20:25:05.768Z,45162.44
2022-08-18T20:27:38.254Z,45142.44
2022-08-18T20:30:39.861Z,45146.44
2022-08-18T20:33:15.341Z,45142.44
2022-08-18T20:35:51.777Z,45160.44
2022-08-18T20:38:36.850Z,45150.44
2022-08-18T20:41:21.829Z,45162.44
2022-08-18T20:43:51.353Z,45162.44
2022-08-18T20:46:48.551Z,45150.44
2022-08-18T20:49:34.059Z,45158.44
2022-08-18T20:52:34.768Z,45154.44
2022-08-18T20:55:15.120Z,45170.41
2022-08-18T20:57:43.983Z,45166.44
2022-08-18T21:00:26.722Z,45162.44
2022-08-18T21:02:58.435Z,45154.44
2022-08-18T21:05:31.482Z,45166.44
2022-08-18T21:07:57.871Z,45158.44
2022-08-18T21:10:28.867Z,45160.44
2022-08-18T21:13:03.174Z,45158.44
2022-08-18T21:15:36.396Z,45166.44
2022-08-18T21:18:07.127Z,45164.44
2022-08-18T21:20:34.279Z,45174.41
2022-08-18T21:23:08.854Z,45178.41
2022-08-18T21:25:36.279Z,45164.44
2022-08-18T21:28:05.657Z,45178.41
2022-08-18T21:30:32.103Z,45182.41
2022-08-18T21:32:58.864Z,45170.41
2022-08-18T21:35:33.018Z,45176.41
2022-08-18T21:38:06.204Z,45172.41
2022-08-18T21:40:39.723Z,45178.41
2022-08-18T21:43:08.393Z,45192.41
2022-08-18T21:45:47.623Z,45190.41
2022-08-18T21:48:14.691Z,45190.41
2022-08-18T21:50:50.704Z,45178.41
2022-08-18T21:53:24.620Z,45198.41
2022-08-18T21:55:56.185Z,45200.41
2022-08-18T21:58:45.294Z,45194.41
2022-08-18T22:01:23.034Z,45196.41
2022-08-18T22:04:00.200Z,45202.38
2022-08-18T22:06:32.464Z,45178.41
2022-08-18T22:09:31.712Z,45186.41
2022-08-18T22:12:38.526Z,45182.41
2022-08-18T22:15:11.893Z,45204.38
2022-08-18T22:17:52.171Z,45182.41
2022-08-18T22:20:45.941Z,45178.41
2022-08-18T22:23:34.081Z,45206.38
2022-08-18T22:26:19.995Z,45198.41
2022-08-18T22:28:55.583Z,45198.41
2022-08-18T22:31:24.045Z,45186.41
2022-08-18T22:33:51.818Z,45198.41
2022-08-18T22:36:23.200Z,45204.38
2022-08-18T22:38:52.264Z,45194.41
2022-08-18T22:41:19.784Z,45202.38
2022-08-18T22:43:47.324Z,45206.38
2022-08-18T22:46:24.141Z,45200.41
2022-08-18T22:48:52.125Z,45214.38
2022-08-18T22:51:22.653Z,45206.38
2022-08-18T22:53:49.726Z,45204.38
2022-08-18T22:56:16.170Z,45214.38
2022-08-18T22:58:49.178Z,45200.41
2022-08-18T23:01:17.233Z,45212.38
2022-08-18T23:03:43.691Z,45214.38
2022-08-18T23:06:10.518Z,45210.38
2022-08-18T23:08:55.114Z,45204.38
2022-08-18T23:11:24.701Z,45206.38
2022-08-18T23:13:51.267Z,45206.38
2022-08-18T23:16:31.899Z,45198.41
2022-08-18T23:19:02.921Z,45206.38
2022-08-18T23:21:34.755Z,45204.38
2022-08-18T23:24:04.824Z,45204.38
2022-08-18T23:26:31.727Z,45216.38
2022-08-18T23:28:58.402Z,45218.38
2022-08-18T23:31:24.908Z,45214.38
2022-08-18T23:33:51.462Z,45212.38
2022-08-18T23:36:17.942Z,45212.38
2022-08-18T23:38:44.714Z,45230.38
2022-08-18T23:41:13.551Z,45218.38
2022-08-18T23:43:41.387Z,45222.38
2022-08-18T23:46:16.382Z,45204.38
2022-08-18T23:48:49.529Z,45220.38
2022-08-18T23:51:34.677Z,45208.38
2022-08-18T23:54:06.604Z,45210.38
2022-08-18T23:56:34.277Z,45222.38
2022-08-18T23:59:01.024Z,45240.34
